Time;durP1;ratioP1;P1;durP2;ratioP2;P2;SDS_P1;SDS_P2;PMS_P1;PMS_P2;Temp;Humidity;BMP_temperature;BMP_pressure;BME280_temperature;BME280_humidity;BME280_pressure;Samples;Min_cycle;Max_cycle;Signal;HPM_P1;HPM_P2
2021/09/15 00:01:03;;;;;;;23.70;19.05;;;19.00;99.90;;;;;;4953087;28;20027;-70
2021/09/15 00:03:29;;;;;;;19.25;16.85;;;19.00;99.90;;;;;;4953394;29;20086;-70
2021/09/15 00:05:54;;;;;;;21.02;16.65;;;19.10;99.90;;;;;;4953513;28;20031;-70
2021/09/15 00:08:20;;;;;;;20.38;16.95;;;19.00;99.90;;;;;;4953291;28;20027;-70
2021/09/15 00:10:46;;;;;;;19.45;16.95;;;19.00;99.90;;;;;;4952319;29;20035;-70
2021/09/15 00:13:12;;;;;;;18.50;16.25;;;19.00;99.90;;;;;;4953830;28;20027;-70
2021/09/15 00:15:38;;;;;;;19.67;16.60;;;19.00;99.90;;;;;;4952721;28;20038;-70
2021/09/15 00:18:04;;;;;;;20.92;17.70;;;18.90;99.90;;;;;;4954000;28;20440;-70
2021/09/15 00:20:29;;;;;;;20.00;16.38;;;18.90;99.90;;;;;;4952959;28;20119;-70
2021/09/15 00:22:55;;;;;;;20.10;16.65;;;18.90;99.90;;;;;;4953835;28;20118;-70
2021/09/15 00:25:20;;;;;;;19.33;17.02;;;18.90;99.90;;;;;;4972494;28;20027;-70
2021/09/15 00:27:46;;;;;;;19.60;15.63;;;18.90;99.90;;;;;;4971388;28;20038;-70
2021/09/15 00:30:12;;;;;;;18.10;16.15;;;18.80;99.90;;;;;;4967968;28;20029;-70
2021/09/15 00:32:37;;;;;;;20.83;17.77;;;18.80;99.90;;;;;;4955564;28;20042;-70
2021/09/15 00:35:06;;;;;;;20.13;16.17;;;18.80;99.90;;;;;;4957410;29;20029;-70
2021/09/15 00:37:31;;;;;;;18.90;16.67;;;18.80;99.90;;;;;;4956922;28;20051;-70
2021/09/15 00:39:57;;;;;;;19.70;17.13;;;18.80;99.90;;;;;;4957129;29;20037;-70
2021/09/15 00:42:23;;;;;;;20.27;16.13;;;18.70;99.90;;;;;;4956707;28;20027;-70
2021/09/15 00:44:48;;;;;;;21.02;16.67;;;18.70;99.90;;;;;;4957106;29;20539;-70
2021/09/15 00:47:14;;;;;;;18.60;15.88;;;18.70;99.90;;;;;;4956946;28;20028;-70
2021/09/15 00:49:39;;;;;;;18.65;16.25;;;18.70;99.90;;;;;;4956878;28;20015;-70
2021/09/15 00:52:05;;;;;;;18.50;16.55;;;18.60;99.90;;;;;;4973783;28;20089;-70
2021/09/15 00:54:31;;;;;;;19.23;15.15;;;18.50;99.90;;;;;;4963470;28;20034;-70
2021/09/15 00:56:56;;;;;;;19.63;16.05;;;18.50;99.90;;;;;;4956942;28;20103;-70
2021/09/15 00:59:22;;;;;;;17.20;15.23;;;18.50;99.90;;;;;;4956804;29;20036;-70
2021/09/15 01:01:47;;;;;;;19.85;17.25;;;18.50;99.90;;;;;;4956515;28;20074;-67
2021/09/15 01:04:13;;;;;;;20.92;16.25;;;18.40;99.90;;;;;;4956466;28;20478;-70
2021/09/15 01:06:39;;;;;;;17.83;15.90;;;18.40;99.90;;;;;;4956768;28;20027;-70
2021/09/15 01:09:06;;;;;;;21.48;16.00;;;18.30;99.90;;;;;;4956754;28;20129;-70
2021/09/15 01:11:35;;;;;;;21.40;16.73;;;18.30;99.90;;;;;;4956183;28;20098;-70
2021/09/15 01:14:02;;;;;;;17.70;15.77;;;18.20;99.90;;;;;;4956672;28;20533;-70
2021/09/15 01:16:45;;;;;;;19.42;16.27;;;18.20;99.90;;;;;;4955967;28;20071;-70
2021/09/15 01:19:11;;;;;;;18.42;15.75;;;18.10;99.90;;;;;;4956712;28;20090;-69
2021/09/15 01:21:36;;;;;;;18.95;15.45;;;18.10;99.90;;;;;;4955922;28;20422;-70
2021/09/15 01:24:02;;;;;;;18.63;15.30;;;18.00;99.90;;;;;;4956621;29;20059;-70
2021/09/15 01:26:33;;;;;;;19.55;15.02;;;18.00;99.90;;;;;;4966318;28;20033;-70
2021/09/15 01:28:58;;;;;;;21.17;17.67;;;17.90;99.90;;;;;;4965723;28;20038;-70
2021/09/15 01:31:24;;;;;;;20.77;15.23;;;17.90;99.90;;;;;;4959308;28;20031;-70
2021/09/15 01:33:49;;;;;;;21.52;17.38;;;17.90;99.90;;;;;;4956415;28;20068;-70
2021/09/15 01:36:15;;;;;;;20.10;17.85;;;17.90;99.90;;;;;;4955761;28;20035;-70
2021/09/15 01:38:40;;;;;;;25.85;17.42;;;17.90;99.90;;;;;;4955908;28;20043;-70
2021/09/15 01:41:06;;;;;;;20.45;17.33;;;17.90;99.90;;;;;;4956160;28;20050;-70
2021/09/15 01:43:31;;;;;;;22.90;17.77;;;17.90;99.90;;;;;;4954932;28;20508;-70
2021/09/15 01:45:57;;;;;;;20.70;18.23;;;17.90;99.90;;;;;;4956014;28;20035;-70
2021/09/15 01:48:22;;;;;;;21.75;19.02;;;17.90;99.90;;;;;;4955397;28;20073;-70
2021/09/15 01:50:48;;;;;;;23.23;17.20;;;17.90;99.90;;;;;;4956068;28;20433;-70
2021/09/15 01:53:13;;;;;;;19.63;17.58;;;17.90;99.90;;;;;;4955889;29;20031;-70
2021/09/15 01:55:39;;;;;;;19.23;16.15;;;17.80;99.90;;;;;;4955958;28;20537;-70
2021/09/15 01:58:08;;;;;;;20.77;18.52;;;17.90;99.90;;;;;;4955623;28;20038;-70
2021/09/15 02:00:35;;;;;;;23.02;18.40;;;17.80;99.90;;;;;;4955550;28;20086;-70
2021/09/15 02:03:00;;;;;;;21.30;17.65;;;17.80;99.90;;;;;;4955630;28;20031;-70
2021/09/15 02:05:26;;;;;;;20.10;15.95;;;17.80;99.90;;;;;;4955312;28;20389;-70
2021/09/15 02:07:51;;;;;;;22.80;16.48;;;17.70;99.90;;;;;;4955831;28;20035;-70
2021/09/15 02:10:17;;;;;;;18.92;14.93;;;17.70;99.90;;;;;;4955265;29;20050;-70
2021/09/15 02:12:43;;;;;;;20.45;15.98;;;17.70;99.90;;;;;;4955408;28;20059;-70
2021/09/15 02:15:11;;;;;;;18.08;16.15;;;17.60;99.90;;;;;;4954518;28;20027;-70
2021/09/15 02:17:37;;;;;;;16.15;14.48;;;17.60;99.90;;;;;;4955150;29;20041;-70
2021/09/15 02:20:04;;;;;;;17.58;15.25;;;17.60;99.90;;;;;;4955283;28;20061;-70
2021/09/15 02:22:30;;;;;;;17.50;15.52;;;17.60;99.90;;;;;;4954890;28;20063;-70
2021/09/15 02:24:55;;;;;;;17.48;15.30;;;17.60;99.90;;;;;;4963270;28;20436;-70
2021/09/15 02:27:21;;;;;;;19.15;15.35;;;17.60;99.90;;;;;;4972744;28;20097;-70
2021/09/15 02:29:46;;;;;;;17.20;13.35;;;17.70;99.90;;;;;;4965079;28;20385;-70
2021/09/15 02:32:12;;;;;;;17.85;14.07;;;17.70;99.90;;;;;;4955275;29;20023;-70
2021/09/15 02:34:38;;;;;;;19.15;14.40;;;17.70;99.90;;;;;;4954657;28;20019;-70
2021/09/15 02:37:03;;;;;;;15.98;13.90;;;17.70;99.90;;;;;;4955167;28;20047;-70
2021/09/15 02:39:30;;;;;;;20.45;15.68;;;17.80;99.90;;;;;;4955011;28;20019;-70
2021/09/15 02:41:56;;;;;;;20.95;15.82;;;17.70;99.90;;;;;;4955150;28;20031;-70
2021/09/15 02:44:22;;;;;;;18.83;15.02;;;17.80;99.90;;;;;;4954550;28;20031;-70
2021/09/15 02:46:47;;;;;;;17.98;15.43;;;17.80;99.90;;;;;;4954962;29;20496;-70
2021/09/15 02:49:13;;;;;;;20.10;15.73;;;17.90;99.90;;;;;;4955011;29;20110;-70
2021/09/15 02:51:38;;;;;;;19.23;16.90;;;17.90;99.90;;;;;;4956300;28;20506;-70
2021/09/15 02:54:04;;;;;;;18.38;15.73;;;17.90;99.90;;;;;;4974111;28;20105;-70
2021/09/15 02:56:30;;;;;;;21.25;16.48;;;18.00;99.90;;;;;;4953597;28;20031;-70
2021/09/15 02:58:55;;;;;;;20.77;15.98;;;18.00;99.90;;;;;;4954468;28;20019;-70
2021/09/15 03:01:21;;;;;;;17.20;15.40;;;18.00;99.90;;;;;;4952891;28;20038;-70
2021/09/15 03:03:46;;;;;;;19.02;14.80;;;18.00;99.90;;;;;;4954840;29;20078;-70
2021/09/15 03:06:12;;;;;;;19.02;15.48;;;18.10;99.90;;;;;;4954303;28;20026;-70
2021/09/15 03:08:40;;;;;;;21.55;17.50;;;18.10;99.90;;;;;;4952871;28;20031;-70
2021/09/15 03:11:06;;;;;;;22.77;16.98;;;18.10;99.90;;;;;;4954349;29;20054;-70
2021/09/15 03:13:31;;;;;;;19.50;17.33;;;18.10;99.90;;;;;;4953792;29;20053;-70
2021/09/15 03:16:04;;;;;;;20.70;16.48;;;18.10;99.90;;;;;;5059648;28;20376;-70
2021/09/15 03:18:29;;;;;;;21.48;17.48;;;18.10;99.90;;;;;;5048382;28;20534;-69
2021/09/15 03:20:55;;;;;;;17.30;15.35;;;18.10;99.90;;;;;;5048548;28;20022;-70
2021/09/15 03:23:20;;;;;;;20.30;16.58;;;18.20;99.90;;;;;;5048114;28;20438;-70
2021/09/15 03:25:46;;;;;;;19.27;16.83;;;18.20;99.90;;;;;;5048581;28;20033;-70
2021/09/15 03:28:11;;;;;;;21.52;17.17;;;18.20;99.90;;;;;;5048387;28;20017;-70
2021/09/15 03:30:37;;;;;;;20.73;17.10;;;18.20;99.90;;;;;;5046917;28;20049;-70
2021/09/15 03:33:02;;;;;;;19.48;17.00;;;18.20;99.90;;;;;;5048772;28;20036;-70
2021/09/15 03:35:28;;;;;;;19.48;16.73;;;18.20;99.90;;;;;;5046612;28;20049;-70
2021/09/15 03:37:53;;;;;;;19.52;15.88;;;18.20;99.90;;;;;;5048675;28;20594;-70
2021/09/15 03:40:19;;;;;;;18.35;15.57;;;18.20;99.90;;;;;;5046762;28;20021;-70
2021/09/15 03:42:44;;;;;;;22.33;16.83;;;18.30;99.90;;;;;;5048281;28;20027;-70
2021/09/15 03:45:10;;;;;;;21.13;16.30;;;18.20;99.90;;;;;;5046657;28;20064;-70
2021/09/15 03:47:35;;;;;;;18.65;16.65;;;18.30;99.90;;;;;;5046585;28;20079;-70
2021/09/15 03:50:01;;;;;;;23.58;16.90;;;18.20;99.90;;;;;;5048201;28;20098;-70
2021/09/15 03:52:27;;;;;;;22.60;16.58;;;18.30;99.90;;;;;;5046673;28;20022;-70
2021/09/15 03:54:52;;;;;;;20.58;17.13;;;18.30;99.90;;;;;;5046489;28;20021;-70
2021/09/15 03:57:18;;;;;;;18.15;16.33;;;18.30;99.90;;;;;;5047603;28;20021;-70
2021/09/15 03:59:43;;;;;;;19.80;16.50;;;18.30;99.90;;;;;;5048024;28;20035;-70
2021/09/15 04:02:09;;;;;;;22.52;17.65;;;18.30;99.90;;;;;;5047991;28;20368;-70
2021/09/15 04:04:34;;;;;;;28.15;18.05;;;18.30;99.90;;;;;;5046347;28;20095;-70
2021/09/15 04:07:00;;;;;;;20.15;16.75;;;18.30;99.90;;;;;;5047988;28;20029;-70
2021/09/15 04:09:25;;;;;;;20.45;17.13;;;18.30;99.90;;;;;;5046348;28;20079;-70
2021/09/15 04:11:51;;;;;;;20.30;17.30;;;18.30;99.90;;;;;;5048006;28;20025;-70
2021/09/15 04:14:16;;;;;;;18.48;16.58;;;18.30;99.90;;;;;;5045946;28;20143;-70
2021/09/15 04:16:42;;;;;;;19.73;16.77;;;18.30;99.90;;;;;;5047863;28;20028;-70
2021/09/15 04:19:07;;;;;;;17.58;15.77;;;18.30;99.90;;;;;;5047610;28;20021;-69
2021/09/15 04:21:33;;;;;;;22.83;17.63;;;18.30;99.90;;;;;;5047098;28;20454;-70
2021/09/15 04:24:20;;;;;;;22.48;16.85;;;18.30;99.90;;;;;;5046935;28;20555;-70
2021/09/15 04:32:14;;;;;;;20.10;17.30;;;18.20;99.90;;;;;;5034184;28;20087;-70
2021/09/15 04:34:40;;;;;;;27.95;19.10;;;18.20;99.90;;;;;;5033932;28;20025;-70
2021/09/15 04:37:05;;;;;;;21.67;17.48;;;18.20;99.90;;;;;;5034133;28;20032;-70
2021/09/15 04:39:31;;;;;;;22.63;18.10;;;18.20;99.90;;;;;;5033699;28;20048;-70
2021/09/15 04:41:56;;;;;;;19.90;17.00;;;18.20;99.90;;;;;;5032687;28;20048;-70
2021/09/15 04:44:21;;;;;;;23.88;19.13;;;18.20;99.90;;;;;;5033852;28;20021;-69
2021/09/15 04:46:47;;;;;;;20.95;17.33;;;18.20;99.90;;;;;;5034153;28;20025;-70
2021/09/15 04:49:12;;;;;;;24.63;18.23;;;18.20;99.90;;;;;;5033631;28;20399;-69
2021/09/15 04:51:38;;;;;;;28.10;19.42;;;18.20;99.90;;;;;;5032340;28;20463;-69
2021/09/15 04:54:03;;;;;;;23.50;18.95;;;18.20;99.90;;;;;;5033816;28;20029;-69
2021/09/15 04:56:29;;;;;;;23.45;18.42;;;18.20;99.90;;;;;;5033565;28;20030;-69
2021/09/15 04:58:54;;;;;;;22.63;18.10;;;18.20;99.90;;;;;;5034211;28;20080;-70
2021/09/15 05:01:20;;;;;;;25.27;19.05;;;18.20;99.90;;;;;;5033230;28;20056;-69
2021/09/15 05:03:45;;;;;;;27.92;19.15;;;18.20;99.90;;;;;;5032655;28;20039;-70
2021/09/15 05:06:11;;;;;;;24.10;18.48;;;18.20;99.90;;;;;;5033533;28;20391;-70
2021/09/15 05:08:36;;;;;;;27.02;20.30;;;18.20;99.90;;;;;;5031942;28;20026;-70
2021/09/15 05:11:02;;;;;;;23.23;20.00;;;18.30;99.90;;;;;;5033354;28;20056;-70
2021/09/15 05:13:27;;;;;;;24.60;20.17;;;18.30;99.90;;;;;;5033272;28;20073;-70
2021/09/15 05:15:53;;;;;;;26.02;21.33;;;18.30;99.90;;;;;;5031793;28;20049;-70
2021/09/15 05:18:18;;;;;;;25.35;20.90;;;18.30;99.90;;;;;;5033027;28;20045;-72
2021/09/15 05:20:44;;;;;;;29.25;20.95;;;18.30;99.90;;;;;;5032881;28;20048;-72
2021/09/15 05:23:09;;;;;;;28.83;21.42;;;18.30;99.90;;;;;;5033636;28;20044;-72
2021/09/15 05:25:35;;;;;;;28.05;23.15;;;18.30;99.90;;;;;;5032969;28;20030;-73
2021/09/15 05:28:01;;;;;;;35.33;23.75;;;18.30;99.90;;;;;;5033178;28;20029;-73
2021/09/15 05:30:26;;;;;;;35.70;22.95;;;18.30;99.90;;;;;;5033141;28;20523;-73
2021/09/15 05:32:52;;;;;;;28.23;22.08;;;18.40;99.90;;;;;;5031933;28;20071;-72
2021/09/15 05:35:17;;;;;;;29.27;22.80;;;18.40;99.90;;;;;;5032550;28;20033;-72
2021/09/15 05:37:44;;;;;;;33.70;21.88;;;18.40;99.90;;;;;;5031880;28;20053;-72
2021/09/15 05:40:10;;;;;;;30.25;21.73;;;18.40;99.90;;;;;;5033146;28;20029;-72
2021/09/15 05:42:36;;;;;;;34.58;22.33;;;18.40;99.90;;;;;;5032444;28;20026;-72
2021/09/15 05:45:02;;;;;;;38.05;24.95;;;18.40;99.90;;;;;;5032943;28;20049;-72
2021/09/15 05:47:29;;;;;;;33.55;24.05;;;18.40;99.90;;;;;;5032584;28;20068;-72
2021/09/15 05:49:55;;;;;;;35.53;23.63;;;18.40;99.90;;;;;;5032618;28;20029;-72
2021/09/15 05:52:21;;;;;;;33.70;23.48;;;18.40;99.90;;;;;;5030951;28;20037;-72
2021/09/15 05:54:46;;;;;;;33.75;24.13;;;18.40;99.90;;;;;;5032692;28;20022;-72
2021/09/15 05:57:12;;;;;;;33.13;23.85;;;18.50;99.90;;;;;;5033194;28;20021;-72
2021/09/15 05:59:38;;;;;;;39.28;24.98;;;18.50;99.90;;;;;;5031260;28;20383;-72
2021/09/15 06:02:03;;;;;;;42.88;25.27;;;18.50;99.90;;;;;;5032890;28;20040;-72
2021/09/15 06:04:28;;;;;;;39.55;25.00;;;18.50;99.90;;;;;;5032530;28;20123;-72
2021/09/15 06:06:54;;;;;;;38.40;25.50;;;18.50;99.90;;;;;;5031303;28;20139;-72
2021/09/15 06:09:19;;;;;;;34.40;25.55;;;18.50;99.90;;;;;;5032173;28;20030;-72
2021/09/15 06:11:45;;;;;;;39.20;26.17;;;18.60;99.90;;;;;;5032734;28;20171;-72
2021/09/15 06:14:10;;;;;;;37.28;25.67;;;18.50;99.90;;;;;;5032244;28;20060;-72
2021/09/15 06:16:36;;;;;;;35.65;24.63;;;18.60;99.90;;;;;;5031963;28;20471;-72
2021/09/15 06:19:02;;;;;;;34.45;24.83;;;18.60;99.90;;;;;;5032478;28;20087;-72
2021/09/15 06:21:27;;;;;;;38.03;24.77;;;18.60;99.90;;;;;;5031687;28;20028;-72
2021/09/15 06:23:54;;;;;;;35.42;23.80;;;18.60;99.90;;;;;;5032426;28;20049;-72
2021/09/15 06:26:24;;;;;;;37.20;25.45;;;18.60;99.90;;;;;;5032118;28;20049;-71
2021/09/15 06:28:50;;;;;;;34.00;24.40;;;18.70;99.90;;;;;;5031123;28;20021;-72
2021/09/15 06:31:16;;;;;;;34.08;24.10;;;18.70;99.90;;;;;;5032006;28;20072;-72
2021/09/15 06:33:41;;;;;;;38.25;24.05;;;18.60;99.90;;;;;;5028311;28;20053;-72
2021/09/15 06:36:07;;;;;;;36.97;26.00;;;18.70;99.90;;;;;;5013711;28;20439;-72
2021/09/15 06:38:32;;;;;;;33.95;24.70;;;18.70;99.90;;;;;;5031833;28;20443;-72
2021/09/15 06:41:00;;;;;;;41.95;26.23;;;18.70;99.90;;;;;;5032348;28;20017;-72
2021/09/15 06:43:26;;;;;;;34.88;25.80;;;18.70;99.90;;;;;;5031616;28;20024;-72
2021/09/15 06:45:52;;;;;;;40.03;25.52;;;18.70;99.90;;;;;;5032141;28;20464;-72
2021/09/15 06:48:19;;;;;;;32.72;24.55;;;18.80;99.90;;;;;;5031625;28;20091;-72
2021/09/15 06:50:44;;;;;;;41.15;27.25;;;18.70;99.90;;;;;;5031456;28;20100;-72
2021/09/15 06:53:10;;;;;;;41.67;27.48;;;18.80;99.90;;;;;;5032211;28;20105;-71
2021/09/15 06:55:36;;;;;;;35.50;27.58;;;18.70;99.90;;;;;;5031333;28;20026;-72
2021/09/15 06:58:01;;;;;;;40.47;28.15;;;18.70;99.90;;;;;;5032138;28;20021;-72
2021/09/15 07:00:27;;;;;;;41.15;29.40;;;18.70;99.90;;;;;;5031523;28;20471;-72
2021/09/15 07:02:52;;;;;;;37.33;26.98;;;18.80;99.90;;;;;;5031931;28;20154;-72
2021/09/15 07:05:18;;;;;;;35.70;28.08;;;18.80;99.90;;;;;;5031038;28;20030;-72
2021/09/15 07:07:43;;;;;;;38.22;28.52;;;18.80;99.90;;;;;;5031553;28;20102;-72
2021/09/15 07:10:10;;;;;;;35.53;27.55;;;18.80;99.90;;;;;;5031581;28;20034;-72
2021/09/15 07:12:38;;;;;;;40.30;28.98;;;18.80;99.90;;;;;;5031291;28;20022;-72
2021/09/15 07:15:06;;;;;;;38.53;27.13;;;18.80;99.90;;;;;;5031126;28;20041;-72
2021/09/15 07:17:31;;;;;;;36.45;27.20;;;18.80;99.90;;;;;;5030848;28;20096;-72
2021/09/15 07:19:57;;;;;;;38.83;29.25;;;18.80;99.90;;;;;;5031178;28;20491;-72
2021/09/15 07:22:22;;;;;;;37.38;28.48;;;18.80;99.90;;;;;;5030923;28;20092;-73
2021/09/15 07:24:48;;;;;;;33.35;25.23;;;18.80;99.90;;;;;;5029903;28;20470;-72
2021/09/15 07:27:13;;;;;;;42.42;27.33;;;18.80;99.90;;;;;;5031040;28;20392;-72
2021/09/15 07:29:39;;;;;;;44.95;29.05;;;18.90;99.90;;;;;;5030036;28;20022;-72
2021/09/15 07:32:05;;;;;;;33.30;25.88;;;18.90;99.90;;;;;;5031459;28;20083;-72
2021/09/15 07:34:30;;;;;;;39.08;27.55;;;18.90;99.90;;;;;;5030709;28;20056;-72
2021/09/15 07:36:56;;;;;;;33.47;27.02;;;18.90;99.90;;;;;;5031158;28;20094;-72
2021/09/15 07:39:21;;;;;;;35.22;28.13;;;18.90;99.90;;;;;;5030743;28;20104;-72
2021/09/15 07:41:47;;;;;;;42.83;27.48;;;19.00;99.90;;;;;;5031435;28;20022;-72
2021/09/15 07:44:13;;;;;;;45.28;29.27;;;19.00;99.90;;;;;;5031216;28;20030;-72
2021/09/15 07:46:39;;;;;;;37.22;27.13;;;19.00;99.90;;;;;;5029903;28;20364;-72
2021/09/15 07:49:04;;;;;;;40.10;27.83;;;19.10;99.90;;;;;;5031374;28;20057;-72
2021/09/15 07:51:30;;;;;;;39.10;28.35;;;19.10;99.90;;;;;;5028973;28;20021;-71
2021/09/15 07:53:55;;;;;;;39.38;28.65;;;19.20;99.90;;;;;;5031163;28;20037;-71
2021/09/15 07:56:21;;;;;;;40.58;29.17;;;19.20;99.90;;;;;;5029458;28;20423;-71
2021/09/15 07:58:46;;;;;;;42.15;30.88;;;19.40;99.90;;;;;;5031214;28;20057;-71
2021/09/15 08:01:12;;;;;;;41.53;30.73;;;19.50;99.90;;;;;;5032211;28;20479;-71
2021/09/15 08:03:37;;;;;;;33.78;29.48;;;19.60;99.90;;;;;;5034457;28;20034;-71
2021/09/15 08:06:04;;;;;;;39.30;30.23;;;19.70;99.90;;;;;;5034611;28;20108;-71
2021/09/15 08:08:31;;;;;;;38.35;30.40;;;19.90;99.90;;;;;;5034626;28;20025;-71
2021/09/15 08:10:57;;;;;;;39.35;32.22;;;20.00;99.90;;;;;;5035069;28;20055;-71
2021/09/15 08:13:24;;;;;;;45.50;33.58;;;20.00;99.90;;;;;;5034394;28;20032;-71
2021/09/15 08:15:51;;;;;;;45.38;33.45;;;20.00;99.90;;;;;;5034372;28;20121;-71
2021/09/15 08:18:17;;;;;;;45.58;33.45;;;20.00;99.90;;;;;;5034146;28;20036;-72
2021/09/15 08:20:45;;;;;;;43.42;33.88;;;20.10;99.90;;;;;;5034223;28;20024;-71
2021/09/15 08:23:15;;;;;;;49.78;35.85;;;20.20;99.90;;;;;;5034664;28;20021;-71
2021/09/15 08:25:41;;;;;;;51.80;37.17;;;20.20;99.90;;;;;;5034427;28;20052;-71
2021/09/15 08:28:07;;;;;;;49.42;37.42;;;20.20;99.90;;;;;;5033229;28;20471;-71
2021/09/15 08:30:33;;;;;;;49.50;39.17;;;20.30;99.90;;;;;;5034059;28;20078;-72
2021/09/15 08:32:59;;;;;;;53.83;40.63;;;20.40;99.90;;;;;;5034341;28;20021;-72
2021/09/15 08:35:25;;;;;;;55.78;41.30;;;20.50;99.90;;;;;;5033566;28;20384;-72
2021/09/15 08:37:50;;;;;;;64.43;48.65;;;20.60;99.90;;;;;;5034278;28;20021;-71
2021/09/15 08:40:16;;;;;;;62.45;45.75;;;20.70;99.90;;;;;;5034267;28;20064;-71
2021/09/15 08:42:41;;;;;;;68.03;48.83;;;20.80;99.90;;;;;;5034140;28;20034;-71
2021/09/15 08:45:09;;;;;;;61.72;46.20;;;20.90;99.90;;;;;;5034389;28;20030;-71
2021/09/15 08:47:37;;;;;;;69.57;49.92;;;20.90;99.90;;;;;;5033700;28;20476;-71
2021/09/15 08:50:05;;;;;;;72.00;53.45;;;20.90;99.90;;;;;;5034028;28;20420;-71
2021/09/15 08:52:30;;;;;;;70.47;54.60;;;20.90;99.90;;;;;;5033556;28;20017;-71
2021/09/15 08:54:56;;;;;;;73.45;54.25;;;21.00;99.90;;;;;;5033639;28;20112;-71
2021/09/15 08:57:22;;;;;;;69.75;52.65;;;21.10;99.90;;;;;;5033698;28;20039;-71
2021/09/15 08:59:47;;;;;;;75.10;55.85;;;21.10;99.90;;;;;;5033900;28;20439;-71
2021/09/15 09:02:14;;;;;;;68.18;50.28;;;21.20;99.90;;;;;;5033949;28;20048;-71
2021/09/15 09:04:51;;;;;;;72.50;52.58;;;21.20;99.90;;;;;;5033476;28;20479;-71
2021/09/15 09:07:17;;;;;;;70.63;51.28;;;21.10;99.90;;;;;;5032968;28;20479;-71
2021/09/15 09:09:54;;;;;;;77.88;53.58;;;21.10;99.90;;;;;;5033872;28;20029;-71
2021/09/15 09:12:22;;;;;;;76.15;54.85;;;21.20;99.90;;;;;;5013583;28;20076;-71
2021/09/15 09:14:48;;;;;;;76.50;55.83;;;21.20;99.90;;;;;;5024194;28;20040;-71
2021/09/15 09:17:29;;;;;;;75.53;53.60;;;21.20;99.90;;;;;;5032876;28;20029;-72
2021/09/15 09:20:17;;;;;;;73.93;54.17;;;21.20;99.90;;;;;;5033430;28;20017;-71
2021/09/15 09:23:00;;;;;;;79.32;54.22;;;21.20;99.90;;;;;;5033185;28;20025;-71
2021/09/15 09:25:28;;;;;;;68.38;50.35;;;21.20;99.90;;;;;;5032605;28;20021;-71
2021/09/15 09:27:54;;;;;;;78.38;55.17;;;21.10;99.90;;;;;;5033399;28;20029;-71
2021/09/15 09:30:35;;;;;;;73.97;52.50;;;21.20;99.90;;;;;;5032756;28;20025;-71
2021/09/15 09:33:01;;;;;;;76.30;53.58;;;21.20;99.90;;;;;;5019951;28;20049;-71
2021/09/15 09:35:49;;;;;;;73.45;50.47;;;21.20;99.90;;;;;;5026273;28;20503;-71
2021/09/15 09:38:24;;;;;;;77.13;52.40;;;21.10;99.90;;;;;;5032277;28;20025;-71
2021/09/15 09:41:16;;;;;;;68.22;46.33;;;21.10;99.90;;;;;;5033125;28;20048;-71
2021/09/15 09:43:47;;;;;;;71.15;49.15;;;21.00;99.90;;;;;;5010804;28;20084;-71
2021/09/15 09:46:19;;;;;;;68.07;46.78;;;20.90;99.90;;;;;;5024075;28;20099;-71
2021/09/15 09:48:56;;;;;;;76.38;49.88;;;20.90;99.90;;;;;;5031589;28;20047;-71
2021/09/15 09:51:24;;;;;;;71.32;48.47;;;20.90;99.90;;;;;;5032507;28;20029;-71
2021/09/15 09:54:05;;;;;;;65.85;45.67;;;21.00;99.90;;;;;;5032608;28;20021;-71
2021/09/15 09:56:32;;;;;;;62.97;44.05;;;21.10;99.90;;;;;;5032367;28;20087;-71
2021/09/15 09:58:58;;;;;;;64.18;45.03;;;21.10;99.90;;;;;;5032357;28;20108;-71
2021/09/15 10:01:24;;;;;;;59.25;42.78;;;21.10;99.90;;;;;;5032321;28;20125;-71
2021/09/15 10:03:50;;;;;;;60.47;44.17;;;21.10;99.90;;;;;;5032731;28;20032;-71
2021/09/15 10:06:15;;;;;;;59.38;45.53;;;20.90;99.90;;;;;;5032214;28;20431;-71
2021/09/15 10:08:42;;;;;;;61.53;45.20;;;20.90;99.90;;;;;;5032453;28;20025;-71
2021/09/15 10:11:09;;;;;;;65.25;48.85;;;20.80;99.90;;;;;;5032713;28;20112;-71
2021/09/15 10:13:34;;;;;;;69.07;51.03;;;20.80;99.90;;;;;;5031516;28;20033;-71
2021/09/15 10:16:04;;;;;;;69.82;50.80;;;20.80;99.90;;;;;;5032042;28;20048;-71
2021/09/15 10:18:30;;;;;;;61.88;46.65;;;20.90;99.90;;;;;;5032091;28;20494;-71
2021/09/15 10:20:58;;;;;;;60.38;46.85;;;20.90;99.90;;;;;;5032297;28;20045;-71
2021/09/15 10:23:38;;;;;;;63.63;47.45;;;20.90;99.90;;;;;;5031625;28;20029;-71
2021/09/15 10:26:33;;;;;;;62.05;45.33;;;20.90;99.90;;;;;;5032065;28;20021;-71
2021/09/15 10:29:29;;;;;;;62.05;44.42;;;20.80;99.90;;;;;;5032149;28;20022;-70
2021/09/15 10:32:11;;;;;;;62.17;44.78;;;20.80;99.90;;;;;;5032204;28;20037;-71
2021/09/15 10:34:37;;;;;;;61.88;44.63;;;20.70;99.90;;;;;;5031423;28;20507;-71
2021/09/15 10:37:26;;;;;;;70.20;49.42;;;20.60;99.90;;;;;;5031935;28;20180;-70
2021/09/15 10:39:59;;;;;;;64.50;45.85;;;20.70;99.90;;;;;;5031942;28;20036;-71
2021/09/15 10:42:47;;;;;;;68.43;46.15;;;20.80;99.90;;;;;;5031551;28;20013;-70
2021/09/15 10:45:17;;;;;;;67.10;44.17;;;20.90;99.90;;;;;;5031908;28;20030;-71
2021/09/15 10:47:52;;;;;;;64.05;43.08;;;20.90;99.90;;;;;;5032017;28;20476;-71
2021/09/15 10:50:30;;;;;;;62.38;42.78;;;20.90;99.90;;;;;;5031657;28;20104;-71
2021/09/15 10:53:07;;;;;;;62.53;41.03;;;20.90;99.90;;;;;;5031600;28;20021;-70
2021/09/15 10:55:53;;;;;;;62.05;40.78;;;21.00;99.90;;;;;;5031194;28;20041;-71
2021/09/15 10:58:21;;;;;;;59.97;40.42;;;21.00;99.90;;;;;;5031598;28;20440;-71
2021/09/15 11:00:52;;;;;;;63.75;40.95;;;21.10;99.90;;;;;;5031563;28;20032;-71
2021/09/15 11:03:33;;;;;;;64.50;44.35;;;21.10;99.90;;;;;;5031310;28;20025;-71
2021/09/15 11:06:18;;;;;;;58.30;40.35;;;21.10;99.90;;;;;;5031128;28;20033;-71
2021/09/15 11:08:47;;;;;;;52.97;37.72;;;21.10;99.90;;;;;;5031910;28;20033;-70
2021/09/15 11:11:22;;;;;;;57.92;39.13;;;21.10;99.90;;;;;;5031678;28;20025;-71
2021/09/15 11:13:51;;;;;;;49.60;35.53;;;21.00;99.90;;;;;;5019739;28;20475;-71
2021/09/15 11:16:24;;;;;;;51.40;36.15;;;21.00;99.90;;;;;;5029571;28;20065;-70
2021/09/15 11:19:10;;;;;;;48.67;35.75;;;21.10;99.90;;;;;;5031291;28;20076;-71
2021/09/15 11:21:48;;;;;;;38.35;28.60;;;21.20;99.90;;;;;;5029329;28;20100;-71
2021/09/15 11:24:19;;;;;;;24.60;19.75;;;21.40;99.90;;;;;;5030051;28;20048;-71
2021/09/15 11:26:57;;;;;;;17.98;15.02;;;21.50;99.90;;;;;;5031218;28;20014;-71
2021/09/15 11:29:50;;;;;;;18.50;15.55;;;21.60;99.90;;;;;;5031052;28;20436;-71
2021/09/15 11:32:17;;;;;;;17.25;13.88;;;21.70;99.90;;;;;;5030955;28;20029;-72
2021/09/15 11:34:48;;;;;;;16.45;13.52;;;21.70;99.80;;;;;;5031618;28;20029;-71
2021/09/15 11:37:22;;;;;;;16.35;13.60;;;21.70;99.60;;;;;;5033588;28;20100;-71
2021/09/15 11:40:03;;;;;;;17.42;15.40;;;21.70;99.50;;;;;;5035263;28;20426;-71
2021/09/15 11:42:31;;;;;;;16.00;13.18;;;21.80;99.20;;;;;;5014949;28;20125;-71
2021/09/15 11:45:16;;;;;;;16.30;14.15;;;21.80;99.20;;;;;;5026492;28;20033;-70
2021/09/15 11:47:48;;;;;;;16.30;14.50;;;21.90;98.70;;;;;;5034881;28;20021;-70
2021/09/15 11:50:14;;;;;;;;;;;21.80;98.10;;;;;;5035135;28;20428;-71
2021/09/15 11:52:46;;;;;;;16.23;13.15;;;21.70;98.00;;;;;;5034707;28;20006;-71
2021/09/15 11:55:13;;;;;;;;;;;21.60;98.00;;;;;;5035187;28;20026;-71
2021/09/15 11:57:54;;;;;;;17.65;14.57;;;21.40;98.00;;;;;;5035239;28;19919;-71
2021/09/15 12:00:20;;;;;;;16.30;14.07;;;21.40;97.70;;;;;;5034423;28;20022;-71
2021/09/15 12:02:47;;;;;;;14.65;12.05;;;21.40;98.00;;;;;;5034675;28;20029;-71
2021/09/15 12:05:13;;;;;;;11.88;10.25;;;21.50;97.90;;;;;;5033472;28;20037;-71
2021/09/15 12:07:42;;;;;;;14.98;10.43;;;21.60;97.50;;;;;;5034449;28;20495;-71
2021/09/15 12:10:08;;;;;;;10.20;8.82;;;21.50;97.10;;;;;;5034334;28;20533;-71
2021/09/15 12:12:35;;;;;;;12.05;9.57;;;21.50;96.60;;;;;;5034241;28;20040;-71
2021/09/15 12:15:02;;;;;;;11.27;9.38;;;21.40;96.30;;;;;;5032855;28;20128;-71
2021/09/15 12:17:28;;;;;;;9.95;8.38;;;21.30;96.30;;;;;;5034108;28;20235;-71
2021/09/15 12:19:57;;;;;;;8.27;7.10;;;21.20;96.40;;;;;;5034321;28;20036;-71
2021/09/15 12:22:26;;;;;;;9.52;7.10;;;21.20;96.20;;;;;;5033938;28;20391;-71
2021/09/15 12:25:03;;;;;;;7.85;7.05;;;21.10;96.40;;;;;;5034426;28;20112;-71
2021/09/15 12:27:30;;;;;;;9.32;6.72;;;21.00;96.30;;;;;;5032509;28;20052;-71
2021/09/15 12:30:13;;;;;;;7.32;6.63;;;20.90;96.40;;;;;;5034217;28;20029;-71
2021/09/15 12:32:41;;;;;;;9.32;5.40;;;20.80;96.30;;;;;;5034289;28;20025;-71
2021/09/15 12:35:25;;;;;;;7.80;5.72;;;20.80;96.40;;;;;;5034148;28;20395;-71
2021/09/15 12:38:03;;;;;;;6.90;4.65;;;20.80;96.60;;;;;;5033847;28;20554;-71